sensor_id;sensor_type;location;lat;lon;timestamp;temperature;humidity
3418;DHT22;68007;51.312;12.372;2024-02-21T00:02:14;10.90;91.10
3418;DHT22;68007;51.312;12.372;2024-02-21T00:04:43;10.80;91.20
3418;DHT22;68007;51.312;12.372;2024-02-21T00:07:11;10.60;91.40
3418;DHT22;68007;51.312;12.372;2024-02-21T00:09:38;10.50;91.80
3418;DHT22;68007;51.312;12.372;2024-02-21T00:12:08;10.50;91.60
3418;DHT22;68007;51.312;12.372;2024-02-21T00:14:35;10.50;91.70
3418;DHT22;68007;51.312;12.372;2024-02-21T00:17:03;10.60;91.80
3418;DHT22;68007;51.312;12.372;2024-02-21T00:19:30;10.70;91.80
3418;DHT22;68007;51.312;12.372;2024-02-21T00:21:58;10.70;91.50
3418;DHT22;68007;51.312;12.372;2024-02-21T00:24:25;10.70;91.60
3418;DHT22;68007;51.312;12.372;2024-02-21T00:26:53;10.70;91.50
3418;DHT22;68007;51.312;12.372;2024-02-21T00:29:22;10.70;91.50
3418;DHT22;68007;51.312;12.372;2024-02-21T00:31:50;10.70;91.30
3418;DHT22;68007;51.312;12.372;2024-02-21T00:34:17;10.60;91.50
3418;DHT22;68007;51.312;12.372;2024-02-21T00:36:45;10.60;91.50
3418;DHT22;68007;51.312;12.372;2024-02-21T00:39:12;10.60;91.60
3418;DHT22;68007;51.312;12.372;2024-02-21T00:41:40;10.70;91.60
3418;DHT22;68007;51.312;12.372;2024-02-21T00:44:07;10.70;91.50
3418;DHT22;68007;51.312;12.372;2024-02-21T00:46:37;10.70;91.60
3418;DHT22;68007;51.312;12.372;2024-02-21T00:49:05;10.70;91.30
3418;DHT22;68007;51.312;12.372;2024-02-21T00:51:33;10.60;91.30
3418;DHT22;68007;51.312;12.372;2024-02-21T00:54:00;10.50;91.40
3418;DHT22;68007;51.312;12.372;2024-02-21T00:56:28;10.50;91.40
3418;DHT22;68007;51.312;12.372;2024-02-21T00:58:57;10.40;91.60
3418;DHT22;68007;51.312;12.372;2024-02-21T01:01:25;10.40;91.80
3418;DHT22;68007;51.312;12.372;2024-02-21T01:03:54;10.50;91.70
3418;DHT22;68007;51.312;12.372;2024-02-21T01:06:21;10.40;91.60
3418;DHT22;68007;51.312;12.372;2024-02-21T01:08:49;10.50;91.70
3418;DHT22;68007;51.312;12.372;2024-02-21T01:11:17;10.50;91.60
3418;DHT22;68007;51.312;12.372;2024-02-21T01:13:45;10.50;91.30
3418;DHT22;68007;51.312;12.372;2024-02-21T01:16:12;10.50;91.40
3418;DHT22;68007;51.312;12.372;2024-02-21T01:18:40;10.60;91.60
3418;DHT22;68007;51.312;12.372;2024-02-21T01:21:09;10.50;91.50
3418;DHT22;68007;51.312;12.372;2024-02-21T01:23:36;10.50;91.60
3418;DHT22;68007;51.312;12.372;2024-02-21T01:26:04;10.50;91.60
3418;DHT22;68007;51.312;12.372;2024-02-21T01:28:34;10.60;91.60
3418;DHT22;68007;51.312;12.372;2024-02-21T01:31:02;10.60;91.40
3418;DHT22;68007;51.312;12.372;2024-02-21T01:33:29;10.60;91.50
3418;DHT22;68007;51.312;12.372;2024-02-21T01:36:01;10.70;91.50
3418;DHT22;68007;51.312;12.372;2024-02-21T01:38:29;10.70;91.50
3418;DHT22;68007;51.312;12.372;2024-02-21T01:40:58;10.70;91.40
3418;DHT22;68007;51.312;12.372;2024-02-21T01:43:25;10.70;91.30
3418;DHT22;68007;51.312;12.372;2024-02-21T01:45:55;10.70;91.40
3418;DHT22;68007;51.312;12.372;2024-02-21T01:48:23;10.70;91.10
3418;DHT22;68007;51.312;12.372;2024-02-21T01:50:52;10.60;91.40
3418;DHT22;68007;51.312;12.372;2024-02-21T01:53:23;10.60;91.40
3418;DHT22;68007;51.312;12.372;2024-02-21T01:55:53;10.60;91.30
3418;DHT22;68007;51.312;12.372;2024-02-21T01:58:22;10.50;91.40
3418;DHT22;68007;51.312;12.372;2024-02-21T02:00:50;10.50;91.50
3418;DHT22;68007;51.312;12.372;2024-02-21T02:03:18;10.60;91.50
3418;DHT22;68007;51.312;12.372;2024-02-21T02:05:46;10.60;91.50
3418;DHT22;68007;51.312;12.372;2024-02-21T02:08:15;10.60;91.30
3418;DHT22;68007;51.312;12.372;2024-02-21T02:10:43;10.50;91.20
3418;DHT22;68007;51.312;12.372;2024-02-21T02:13:12;10.50;91.50
3418;DHT22;68007;51.312;12.372;2024-02-21T02:15:40;10.50;91.40
3418;DHT22;68007;51.312;12.372;2024-02-21T02:18:08;10.50;91.50
3418;DHT22;68007;51.312;12.372;2024-02-21T02:20:36;10.60;91.30
3418;DHT22;68007;51.312;12.372;2024-02-21T02:23:07;10.50;91.40
3418;DHT22;68007;51.312;12.372;2024-02-21T02:25:39;10.50;91.40
3418;DHT22;68007;51.312;12.372;2024-02-21T02:28:07;10.50;91.30
3418;DHT22;68007;51.312;12.372;2024-02-21T02:30:35;10.40;91.20
3418;DHT22;68007;51.312;12.372;2024-02-21T02:33:03;10.40;91.50
3418;DHT22;68007;51.312;12.372;2024-02-21T02:35:32;10.30;91.30
3418;DHT22;68007;51.312;12.372;2024-02-21T02:38:01;10.20;91.50
3418;DHT22;68007;51.312;12.372;2024-02-21T02:40:29;10.20;91.50
3418;DHT22;68007;51.312;12.372;2024-02-21T02:42:58;10.20;91.70
3418;DHT22;68007;51.312;12.372;2024-02-21T02:45:26;10.20;91.60
3418;DHT22;68007;51.312;12.372;2024-02-21T02:47:54;10.20;91.60
3418;DHT22;68007;51.312;12.372;2024-02-21T02:50:23;10.20;91.90
3418;DHT22;68007;51.312;12.372;2024-02-21T02:52:50;10.20;91.80
3418;DHT22;68007;51.312;12.372;2024-02-21T02:55:18;10.30;91.80
3418;DHT22;68007;51.312;12.372;2024-02-21T02:57:45;10.30;91.70
3418;DHT22;68007;51.312;12.372;2024-02-21T03:00:15;10.30;91.60
3418;DHT22;68007;51.312;12.372;2024-02-21T03:02:44;10.30;91.40
3418;DHT22;68007;51.312;12.372;2024-02-21T03:05:14;10.30;91.50
3418;DHT22;68007;51.312;12.372;2024-02-21T03:07:42;10.20;91.60
3418;DHT22;68007;51.312;12.372;2024-02-21T03:10:10;10.20;91.70
3418;DHT22;68007;51.312;12.372;2024-02-21T03:12:38;10.30;91.70
3418;DHT22;68007;51.312;12.372;2024-02-21T03:15:06;10.30;91.70
3418;DHT22;68007;51.312;12.372;2024-02-21T03:17:35;10.30;91.70
3418;DHT22;68007;51.312;12.372;2024-02-21T03:20:03;10.40;91.70
3418;DHT22;68007;51.312;12.372;2024-02-21T03:22:34;10.30;91.50
3418;DHT22;68007;51.312;12.372;2024-02-21T03:25:01;10.30;91.50
3418;DHT22;68007;51.312;12.372;2024-02-21T03:27:29;10.30;91.60
3418;DHT22;68007;51.312;12.372;2024-02-21T03:29:56;10.20;91.40
3418;DHT22;68007;51.312;12.372;2024-02-21T03:32:24;10.20;91.50
3418;DHT22;68007;51.312;12.372;2024-02-21T03:34:53;10.10;91.60
3418;DHT22;68007;51.312;12.372;2024-02-21T03:37:21;10.10;91.70
3418;DHT22;68007;51.312;12.372;2024-02-21T03:39:48;10.10;91.80
3418;DHT22;68007;51.312;12.372;2024-02-21T03:42:16;10.00;91.90
3418;DHT22;68007;51.312;12.372;2024-02-21T03:44:43;10.00;92.00
3418;DHT22;68007;51.312;12.372;2024-02-21T03:47:11;10.10;91.90
3418;DHT22;68007;51.312;12.372;2024-02-21T03:49:38;10.10;91.90
3418;DHT22;68007;51.312;12.372;2024-02-21T03:52:07;10.20;92.00
3418;DHT22;68007;51.312;12.372;2024-02-21T03:54:35;10.20;91.70
3418;DHT22;68007;51.312;12.372;2024-02-21T03:57:04;10.10;91.80
3418;DHT22;68007;51.312;12.372;2024-02-21T03:59:32;10.20;92.00
3418;DHT22;68007;51.312;12.372;2024-02-21T04:01:59;10.30;92.00
3418;DHT22;68007;51.312;12.372;2024-02-21T04:04:27;10.30;91.70
3418;DHT22;68007;51.312;12.372;2024-02-21T04:06:54;10.30;91.90
3418;DHT22;68007;51.312;12.372;2024-02-21T04:09:23;10.30;91.90
3418;DHT22;68007;51.312;12.372;2024-02-21T04:11:50;10.30;91.80
3418;DHT22;68007;51.312;12.372;2024-02-21T04:14:18;10.30;91.80
3418;DHT22;68007;51.312;12.372;2024-02-21T04:16:45;10.20;91.80
3418;DHT22;68007;51.312;12.372;2024-02-21T04:19:13;10.10;92.00
3418;DHT22;68007;51.312;12.372;2024-02-21T04:21:40;10.10;92.10
3418;DHT22;68007;51.312;12.372;2024-02-21T04:24:08;10.10;92.30
3418;DHT22;68007;51.312;12.372;2024-02-21T04:26:37;10.00;92.40
3418;DHT22;68007;51.312;12.372;2024-02-21T04:29:04;10.10;92.50
3418;DHT22;68007;51.312;12.372;2024-02-21T04:31:32;10.10;92.40
3418;DHT22;68007;51.312;12.372;2024-02-21T04:34:00;10.10;92.40
3418;DHT22;68007;51.312;12.372;2024-02-21T04:36:29;10.00;92.50
3418;DHT22;68007;51.312;12.372;2024-02-21T04:38:56;10.00;92.60
3418;DHT22;68007;51.312;12.372;2024-02-21T04:41:24;10.10;92.70
3418;DHT22;68007;51.312;12.372;2024-02-21T04:43:53;10.10;92.70
3418;DHT22;68007;51.312;12.372;2024-02-21T04:46:20;10.00;92.70
3418;DHT22;68007;51.312;12.372;2024-02-21T04:48:48;10.00;92.70
3418;DHT22;68007;51.312;12.372;2024-02-21T04:51:15;10.00;92.80
3418;DHT22;68007;51.312;12.372;2024-02-21T04:53:43;10.00;92.80
3418;DHT22;68007;51.312;12.372;2024-02-21T04:56:10;10.00;92.80
3418;DHT22;68007;51.312;12.372;2024-02-21T04:58:38;9.90;92.90
3418;DHT22;68007;51.312;12.372;2024-02-21T05:01:07;9.90;93.10
3418;DHT22;68007;51.312;12.372;2024-02-21T05:03:35;9.90;93.20
3418;DHT22;68007;51.312;12.372;2024-02-21T05:06:03;9.90;93.20
3418;DHT22;68007;51.312;12.372;2024-02-21T05:08:30;9.90;93.20
3418;DHT22;68007;51.312;12.372;2024-02-21T05:10:58;10.00;93.20
3418;DHT22;68007;51.312;12.372;2024-02-21T05:13:25;10.10;93.10
3418;DHT22;68007;51.312;12.372;2024-02-21T05:15:53;10.10;93.00
3418;DHT22;68007;51.312;12.372;2024-02-21T05:18:22;10.10;93.10
3418;DHT22;68007;51.312;12.372;2024-02-21T05:20:49;10.10;93.00
3418;DHT22;68007;51.312;12.372;2024-02-21T05:23:17;10.20;93.00
3418;DHT22;68007;51.312;12.372;2024-02-21T05:25:44;10.30;92.90
3418;DHT22;68007;51.312;12.372;2024-02-21T05:28:12;10.40;92.80
3418;DHT22;68007;51.312;12.372;2024-02-21T05:30:39;10.40;92.60
3418;DHT22;68007;51.312;12.372;2024-02-21T05:33:07;10.40;92.70
3418;DHT22;68007;51.312;12.372;2024-02-21T05:35:36;10.40;92.60
3418;DHT22;68007;51.312;12.372;2024-02-21T05:38:04;10.50;92.60
3418;DHT22;68007;51.312;12.372;2024-02-21T05:40:37;10.50;92.60
3418;DHT22;68007;51.312;12.372;2024-02-21T05:43:05;10.50;92.60
3418;DHT22;68007;51.312;12.372;2024-02-21T05:45:32;10.50;92.40
3418;DHT22;68007;51.312;12.372;2024-02-21T05:48:00;10.50;92.50
3418;DHT22;68007;51.312;12.372;2024-02-21T05:50:28;10.50;92.40
3418;DHT22;68007;51.312;12.372;2024-02-21T05:52:57;10.50;92.40
3418;DHT22;68007;51.312;12.372;2024-02-21T05:55:25;10.50;92.50
3418;DHT22;68007;51.312;12.372;2024-02-21T05:57:54;10.50;92.50
3418;DHT22;68007;51.312;12.372;2024-02-21T06:00:22;10.50;92.50
3418;DHT22;68007;51.312;12.372;2024-02-21T06:02:49;10.50;92.50
3418;DHT22;68007;51.312;12.372;2024-02-21T06:05:17;10.50;92.40
3418;DHT22;68007;51.312;12.372;2024-02-21T06:07:45;10.50;92.40
3418;DHT22;68007;51.312;12.372;2024-02-21T06:10:13;10.50;92.50
3418;DHT22;68007;51.312;12.372;2024-02-21T06:12:41;10.50;92.50
3418;DHT22;68007;51.312;12.372;2024-02-21T06:15:09;10.50;92.50
3418;DHT22;68007;51.312;12.372;2024-02-21T06:17:36;10.50;92.60
3418;DHT22;68007;51.312;12.372;2024-02-21T06:20:05;10.50;92.70
3418;DHT22;68007;51.312;12.372;2024-02-21T06:22:32;10.50;92.50
3418;DHT22;68007;51.312;12.372;2024-02-21T06:25:00;10.50;92.40
3418;DHT22;68007;51.312;12.372;2024-02-21T06:27:29;10.40;92.50
3418;DHT22;68007;51.312;12.372;2024-02-21T06:29:57;10.40;92.70
3418;DHT22;68007;51.312;12.372;2024-02-21T06:32:24;10.40;92.60
3418;DHT22;68007;51.312;12.372;2024-02-21T06:34:52;10.40;92.70
3418;DHT22;68007;51.312;12.372;2024-02-21T06:37:19;10.40;92.70
3418;DHT22;68007;51.312;12.372;2024-02-21T06:39:47;10.40;92.80
3418;DHT22;68007;51.312;12.372;2024-02-21T06:42:14;10.30;92.80
3418;DHT22;68007;51.312;12.372;2024-02-21T06:44:44;10.40;92.80
3418;DHT22;68007;51.312;12.372;2024-02-21T06:47:11;10.50;92.90
3418;DHT22;68007;51.312;12.372;2024-02-21T06:49:39;10.50;92.40
3418;DHT22;68007;51.312;12.372;2024-02-21T06:52:07;10.50;92.60
3418;DHT22;68007;51.312;12.372;2024-02-21T06:54:35;10.60;92.60
3418;DHT22;68007;51.312;12.372;2024-02-21T06:57:03;10.70;92.50
3418;DHT22;68007;51.312;12.372;2024-02-21T06:59:30;10.70;92.40
3418;DHT22;68007;51.312;12.372;2024-02-21T07:01:59;10.70;92.40
3418;DHT22;68007;51.312;12.372;2024-02-21T07:04:27;10.70;92.30
3418;DHT22;68007;51.312;12.372;2024-02-21T07:06:55;10.70;92.40
3418;DHT22;68007;51.312;12.372;2024-02-21T07:09:23;10.70;92.30
3418;DHT22;68007;51.312;12.372;2024-02-21T07:11:50;10.70;92.30
3418;DHT22;68007;51.312;12.372;2024-02-21T07:14:18;10.70;92.30
3418;DHT22;68007;51.312;12.372;2024-02-21T07:16:46;10.70;92.30
3418;DHT22;68007;51.312;12.372;2024-02-21T07:19:15;10.70;92.30
3418;DHT22;68007;51.312;12.372;2024-02-21T07:21:42;10.70;92.20
3418;DHT22;68007;51.312;12.372;2024-02-21T07:24:10;10.60;92.30
3418;DHT22;68007;51.312;12.372;2024-02-21T07:26:41;10.60;92.30
3418;DHT22;68007;51.312;12.372;2024-02-21T07:29:11;10.60;92.50
3418;DHT22;68007;51.312;12.372;2024-02-21T07:31:40;10.50;92.50
3418;DHT22;68007;51.312;12.372;2024-02-21T07:34:08;10.40;92.60
3418;DHT22;68007;51.312;12.372;2024-02-21T07:36:37;10.40;92.70
3418;DHT22;68007;51.312;12.372;2024-02-21T07:39:05;10.40;92.80
3418;DHT22;68007;51.312;12.372;2024-02-21T07:41:33;10.30;92.90
3418;DHT22;68007;51.312;12.372;2024-02-21T07:44:01;10.20;92.90
3418;DHT22;68007;51.312;12.372;2024-02-21T07:46:29;10.10;93.20
3418;DHT22;68007;51.312;12.372;2024-02-21T07:48:57;10.00;93.40
3418;DHT22;68007;51.312;12.372;2024-02-21T07:51:27;10.00;93.60
3418;DHT22;68007;51.312;12.372;2024-02-21T07:53:56;9.90;93.60
3418;DHT22;68007;51.312;12.372;2024-02-21T07:56:27;9.90;93.70
3418;DHT22;68007;51.312;12.372;2024-02-21T07:58:55;9.80;93.80
3418;DHT22;68007;51.312;12.372;2024-02-21T08:01:23;9.80;93.90
3418;DHT22;68007;51.312;12.372;2024-02-21T08:03:50;9.80;94.00
3418;DHT22;68007;51.312;12.372;2024-02-21T08:06:18;9.80;93.90
3418;DHT22;68007;51.312;12.372;2024-02-21T08:08:45;9.80;94.10
3418;DHT22;68007;51.312;12.372;2024-02-21T08:11:14;9.70;94.00
3418;DHT22;68007;51.312;12.372;2024-02-21T08:13:42;9.60;94.10
3418;DHT22;68007;51.312;12.372;2024-02-21T08:16:09;9.70;94.20
3418;DHT22;68007;51.312;12.372;2024-02-21T08:18:37;9.60;94.30
3418;DHT22;68007;51.312;12.372;2024-02-21T08:21:05;9.60;94.30
3418;DHT22;68007;51.312;12.372;2024-02-21T08:23:32;9.60;94.40
3418;DHT22;68007;51.312;12.372;2024-02-21T08:26:03;9.70;94.40
3418;DHT22;68007;51.312;12.372;2024-02-21T08:28:32;9.70;94.30
3418;DHT22;68007;51.312;12.372;2024-02-21T08:30:59;9.70;94.60
3418;DHT22;68007;51.312;12.372;2024-02-21T08:33:27;9.70;94.40
3418;DHT22;68007;51.312;12.372;2024-02-21T08:35:56;9.70;94.40
3418;DHT22;68007;51.312;12.372;2024-02-21T08:38:23;9.70;94.30
3418;DHT22;68007;51.312;12.372;2024-02-21T08:40:51;9.70;94.50
3418;DHT22;68007;51.312;12.372;2024-02-21T08:43:18;9.70;94.50
3418;DHT22;68007;51.312;12.372;2024-02-21T08:45:47;9.70;94.50
3418;DHT22;68007;51.312;12.372;2024-02-21T08:48:15;9.70;94.50
3418;DHT22;68007;51.312;12.372;2024-02-21T08:50:42;9.90;94.60
3418;DHT22;68007;51.312;12.372;2024-02-21T08:53:10;9.90;94.50
3418;DHT22;68007;51.312;12.372;2024-02-21T08:55:37;9.90;94.40
3418;DHT22;68007;51.312;12.372;2024-02-21T08:58:05;10.00;94.30
3418;DHT22;68007;51.312;12.372;2024-02-21T09:00:32;10.00;94.30
3418;DHT22;68007;51.312;12.372;2024-02-21T09:03:01;10.00;94.30
3418;DHT22;68007;51.312;12.372;2024-02-21T09:05:29;10.00;94.30
3418;DHT22;68007;51.312;12.372;2024-02-21T09:07:57;10.00;94.30
3418;DHT22;68007;51.312;12.372;2024-02-21T09:10:24;10.00;94.40
3418;DHT22;68007;51.312;12.372;2024-02-21T09:12:52;9.90;94.30
3418;DHT22;68007;51.312;12.372;2024-02-21T09:15:19;9.90;94.50
3418;DHT22;68007;51.312;12.372;2024-02-21T09:17:47;9.80;94.50
3418;DHT22;68007;51.312;12.372;2024-02-21T09:20:16;9.80;94.60
3418;DHT22;68007;51.312;12.372;2024-02-21T09:22:44;9.80;94.70
3418;DHT22;68007;51.312;12.372;2024-02-21T09:25:12;9.80;94.80
3418;DHT22;68007;51.312;12.372;2024-02-21T09:27:39;9.80;94.80
3418;DHT22;68007;51.312;12.372;2024-02-21T09:30:07;9.80;95.20
3418;DHT22;68007;51.312;12.372;2024-02-21T09:32:35;9.80;95.10
3418;DHT22;68007;51.312;12.372;2024-02-21T09:35:03;9.80;94.90
3418;DHT22;68007;51.312;12.372;2024-02-21T09:37:32;9.80;95.00
3418;DHT22;68007;51.312;12.372;2024-02-21T09:40:00;9.80;95.00
3418;DHT22;68007;51.312;12.372;2024-02-21T09:42:35;9.80;95.30
3418;DHT22;68007;51.312;12.372;2024-02-21T09:45:08;9.90;95.00
3418;DHT22;68007;51.312;12.372;2024-02-21T09:47:48;9.90;94.90
3418;DHT22;68007;51.312;12.372;2024-02-21T09:50:18;10.00;94.90
3418;DHT22;68007;51.312;12.372;2024-02-21T09:52:49;10.00;94.80
3418;DHT22;68007;51.312;12.372;2024-02-21T09:55:18;10.00;94.70
3418;DHT22;68007;51.312;12.372;2024-02-21T09:57:46;10.00;94.70
3418;DHT22;68007;51.312;12.372;2024-02-21T10:00:14;10.10;94.70
3418;DHT22;68007;51.312;12.372;2024-02-21T10:02:48;10.10;94.40
3418;DHT22;68007;51.312;12.372;2024-02-21T10:05:16;10.00;94.50
3418;DHT22;68007;51.312;12.372;2024-02-21T10:07:44;10.00;94.60
3418;DHT22;68007;51.312;12.372;2024-02-21T10:10:13;10.00;94.60
3418;DHT22;68007;51.312;12.372;2024-02-21T10:12:49;10.00;94.40
3418;DHT22;68007;51.312;12.372;2024-02-21T10:15:20;10.00;94.40
3418;DHT22;68007;51.312;12.372;2024-02-21T10:17:49;10.10;94.40
3418;DHT22;68007;51.312;12.372;2024-02-21T10:20:16;10.10;94.70
3418;DHT22;68007;51.312;12.372;2024-02-21T10:22:44;10.00;94.40
3418;DHT22;68007;51.312;12.372;2024-02-21T10:25:13;10.10;94.50
3418;DHT22;68007;51.312;12.372;2024-02-21T10:27:41;10.10;94.40
3418;DHT22;68007;51.312;12.372;2024-02-21T10:30:13;10.20;94.40
3418;DHT22;68007;51.312;12.372;2024-02-21T10:32:49;10.20;94.40
3418;DHT22;68007;51.312;12.372;2024-02-21T10:35:26;10.20;94.30
3418;DHT22;68007;51.312;12.372;2024-02-21T10:37:54;10.20;94.20
3418;DHT22;68007;51.312;12.372;2024-02-21T10:40:25;10.20;94.30
3418;DHT22;68007;51.312;12.372;2024-02-21T10:42:58;10.20;94.10
3418;DHT22;68007;51.312;12.372;2024-02-21T10:45:30;10.20;94.00
3418;DHT22;68007;51.312;12.372;2024-02-21T10:48:08;10.20;93.90
3418;DHT22;68007;51.312;12.372;2024-02-21T10:50:46;10.20;93.90
3418;DHT22;68007;51.312;12.372;2024-02-21T10:53:22;10.10;94.00
3418;DHT22;68007;51.312;12.372;2024-02-21T10:56:00;10.20;94.00
3418;DHT22;68007;51.312;12.372;2024-02-21T10:58:29;10.20;94.00
3418;DHT22;68007;51.312;12.372;2024-02-21T11:00:57;10.30;93.80
3418;DHT22;68007;51.312;12.372;2024-02-21T11:03:25;10.30;93.80
3418;DHT22;68007;51.312;12.372;2024-02-21T11:05:53;10.30;93.80
3418;DHT22;68007;51.312;12.372;2024-02-21T11:08:21;10.30;93.80
3418;DHT22;68007;51.312;12.372;2024-02-21T11:10:48;10.40;93.80
3418;DHT22;68007;51.312;12.372;2024-02-21T11:13:17;10.40;93.80
3418;DHT22;68007;51.312;12.372;2024-02-21T11:15:44;10.40;93.80
3418;DHT22;68007;51.312;12.372;2024-02-21T11:18:23;10.40;93.80
3418;DHT22;68007;51.312;12.372;2024-02-21T11:20:51;10.50;93.80
3418;DHT22;68007;51.312;12.372;2024-02-21T11:23:25;10.50;93.80
3418;DHT22;68007;51.312;12.372;2024-02-21T11:25:52;10.40;93.80
3418;DHT22;68007;51.312;12.372;2024-02-21T11:28:26;10.50;93.90
3418;DHT22;68007;51.312;12.372;2024-02-21T11:31:08;10.50;93.80
3418;DHT22;68007;51.312;12.372;2024-02-21T11:33:35;10.50;93.80
3418;DHT22;68007;51.312;12.372;2024-02-21T11:36:06;10.50;93.90
3418;DHT22;68007;51.312;12.372;2024-02-21T11:38:34;10.50;93.80
3418;DHT22;68007;51.312;12.372;2024-02-21T11:41:02;10.50;93.80
3418;DHT22;68007;51.312;12.372;2024-02-21T11:43:31;10.50;93.80
3418;DHT22;68007;51.312;12.372;2024-02-21T11:45:59;10.50;93.90
3418;DHT22;68007;51.312;12.372;2024-02-21T11:48:30;10.60;93.80
3418;DHT22;68007;51.312;12.372;2024-02-21T11:50:57;10.60;93.70
3418;DHT22;68007;51.312;12.372;2024-02-21T11:53:26;10.60;93.80
3418;DHT22;68007;51.312;12.372;2024-02-21T11:55:57;10.60;93.80
3418;DHT22;68007;51.312;12.372;2024-02-21T11:58:24;10.70;93.80
3418;DHT22;68007;51.312;12.372;2024-02-21T12:00:53;10.70;93.90
3418;DHT22;68007;51.312;12.372;2024-02-21T12:03:21;10.70;93.90
3418;DHT22;68007;51.312;12.372;2024-02-21T12:05:49;10.70;93.70
3418;DHT22;68007;51.312;12.372;2024-02-21T12:08:17;10.60;93.90
3418;DHT22;68007;51.312;12.372;2024-02-21T12:10:44;10.60;93.90
3418;DHT22;68007;51.312;12.372;2024-02-21T12:13:17;10.70;94.00
3418;DHT22;68007;51.312;12.372;2024-02-21T12:15:47;10.70;94.00
3418;DHT22;68007;51.312;12.372;2024-02-21T12:18:17;10.80;94.20
3418;DHT22;68007;51.312;12.372;2024-02-21T12:20:48;10.80;93.80
3418;DHT22;68007;51.312;12.372;2024-02-21T12:23:15;10.80;93.80
3418;DHT22;68007;51.312;12.372;2024-02-21T12:25:45;10.90;93.90
3418;DHT22;68007;51.312;12.372;2024-02-21T12:28:13;10.90;93.80
3418;DHT22;68007;51.312;12.372;2024-02-21T12:30:40;11.00;93.70
3418;DHT22;68007;51.312;12.372;2024-02-21T12:33:09;11.00;93.80
3418;DHT22;68007;51.312;12.372;2024-02-21T12:35:37;11.00;93.80
3418;DHT22;68007;51.312;12.372;2024-02-21T12:38:05;11.00;93.80
3418;DHT22;68007;51.312;12.372;2024-02-21T12:40:32;11.00;93.70
3418;DHT22;68007;51.312;12.372;2024-02-21T12:43:00;11.10;93.80
3418;DHT22;68007;51.312;12.372;2024-02-21T12:45:29;11.10;93.70
3418;DHT22;68007;51.312;12.372;2024-02-21T12:47:56;11.10;93.80
3418;DHT22;68007;51.312;12.372;2024-02-21T12:50:24;11.20;93.70
3418;DHT22;68007;51.312;12.372;2024-02-21T12:52:53;11.30;93.70
3418;DHT22;68007;51.312;12.372;2024-02-21T12:55:20;11.30;93.80
3418;DHT22;68007;51.312;12.372;2024-02-21T12:57:48;11.40;94.40
3418;DHT22;68007;51.312;12.372;2024-02-21T13:00:16;11.50;94.50
3418;DHT22;68007;51.312;12.372;2024-02-21T13:02:44;11.60;94.70
3418;DHT22;68007;51.312;12.372;2024-02-21T13:05:12;11.80;94.70
3418;DHT22;68007;51.312;12.372;2024-02-21T13:07:40;11.90;94.40
3418;DHT22;68007;51.312;12.372;2024-02-21T13:10:09;12.10;94.50
3418;DHT22;68007;51.312;12.372;2024-02-21T13:12:36;12.20;94.30
3418;DHT22;68007;51.312;12.372;2024-02-21T13:15:05;12.30;94.00
3418;DHT22;68007;51.312;12.372;2024-02-21T13:17:33;12.40;94.00
3418;DHT22;68007;51.312;12.372;2024-02-21T13:20:01;12.50;94.30
3418;DHT22;68007;51.312;12.372;2024-02-21T13:22:29;12.60;93.50
3418;DHT22;68007;51.312;12.372;2024-02-21T13:24:56;12.80;93.30
3418;DHT22;68007;51.312;12.372;2024-02-21T13:27:25;12.90;92.90
3418;DHT22;68007;51.312;12.372;2024-02-21T13:29:52;13.00;92.90
3418;DHT22;68007;51.312;12.372;2024-02-21T13:32:20;13.10;92.80
3418;DHT22;68007;51.312;12.372;2024-02-21T13:34:47;13.10;92.30
3418;DHT22;68007;51.312;12.372;2024-02-21T13:37:15;13.20;91.80
3418;DHT22;68007;51.312;12.372;2024-02-21T13:39:43;13.30;91.60
3418;DHT22;68007;51.312;12.372;2024-02-21T13:42:11;13.30;91.60
3418;DHT22;68007;51.312;12.372;2024-02-21T13:44:40;13.40;91.40
3418;DHT22;68007;51.312;12.372;2024-02-21T13:47:08;13.40;91.20
3418;DHT22;68007;51.312;12.372;2024-02-21T13:49:35;13.50;90.70
3418;DHT22;68007;51.312;12.372;2024-02-21T13:52:05;13.50;90.80
3418;DHT22;68007;51.312;12.372;2024-02-21T13:54:33;13.50;90.30
3418;DHT22;68007;51.312;12.372;2024-02-21T13:57:00;13.50;90.30
3418;DHT22;68007;51.312;12.372;2024-02-21T13:59:28;13.60;90.20
3418;DHT22;68007;51.312;12.372;2024-02-21T14:01:57;13.60;89.80
3418;DHT22;68007;51.312;12.372;2024-02-21T14:04:25;13.60;89.50
3418;DHT22;68007;51.312;12.372;2024-02-21T14:06:53;13.60;89.30
3418;DHT22;68007;51.312;12.372;2024-02-21T14:09:21;13.60;89.00
3418;DHT22;68007;51.312;12.372;2024-02-21T14:11:48;13.60;89.60
3418;DHT22;68007;51.312;12.372;2024-02-21T14:14:16;13.70;88.70
3418;DHT22;68007;51.312;12.372;2024-02-21T14:16:43;13.70;88.90
3418;DHT22;68007;51.312;12.372;2024-02-21T14:19:15;13.70;89.10
3418;DHT22;68007;51.312;12.372;2024-02-21T14:21:43;13.70;89.60
3418;DHT22;68007;51.312;12.372;2024-02-21T14:24:11;13.80;89.20
3418;DHT22;68007;51.312;12.372;2024-02-21T14:26:39;13.80;89.20
3418;DHT22;68007;51.312;12.372;2024-02-21T14:29:07;13.80;88.10
3418;DHT22;68007;51.312;12.372;2024-02-21T14:31:34;13.80;86.70
3418;DHT22;68007;51.312;12.372;2024-02-21T14:34:02;13.80;86.00
3418;DHT22;68007;51.312;12.372;2024-02-21T14:36:31;13.80;85.20
3418;DHT22;68007;51.312;12.372;2024-02-21T14:38:59;13.70;84.40
3418;DHT22;68007;51.312;12.372;2024-02-21T14:41:26;13.70;85.30
3418;DHT22;68007;51.312;12.372;2024-02-21T14:43:54;13.70;84.50
3418;DHT22;68007;51.312;12.372;2024-02-21T14:46:22;13.70;83.10
3418;DHT22;68007;51.312;12.372;2024-02-21T14:48:49;13.60;84.20
3418;DHT22;68007;51.312;12.372;2024-02-21T14:51:17;13.60;83.20
3418;DHT22;68007;51.312;12.372;2024-02-21T14:53:46;13.60;84.40
3418;DHT22;68007;51.312;12.372;2024-02-21T14:56:14;13.70;84.20
3418;DHT22;68007;51.312;12.372;2024-02-21T14:58:43;13.70;83.40
3418;DHT22;68007;51.312;12.372;2024-02-21T15:01:11;13.70;84.40
3418;DHT22;68007;51.312;12.372;2024-02-21T15:03:39;13.70;82.90
3418;DHT22;68007;51.312;12.372;2024-02-21T15:06:06;13.70;82.90
3418;DHT22;68007;51.312;12.372;2024-02-21T15:08:34;13.70;83.30
3418;DHT22;68007;51.312;12.372;2024-02-21T15:11:04;13.70;82.90
3418;DHT22;68007;51.312;12.372;2024-02-21T15:13:32;13.70;83.30
3418;DHT22;68007;51.312;12.372;2024-02-21T15:15:59;13.70;84.10
3418;DHT22;68007;51.312;12.372;2024-02-21T15:18:27;13.80;84.40
3418;DHT22;68007;51.312;12.372;2024-02-21T15:20:55;13.80;83.60
3418;DHT22;68007;51.312;12.372;2024-02-21T15:23:22;13.80;83.00
3418;DHT22;68007;51.312;12.372;2024-02-21T15:25:51;13.80;84.30
3418;DHT22;68007;51.312;12.372;2024-02-21T15:28:19;13.90;84.80
3418;DHT22;68007;51.312;12.372;2024-02-21T15:30:47;13.80;82.10
3418;DHT22;68007;51.312;12.372;2024-02-21T15:33:15;13.80;82.40
3418;DHT22;68007;51.312;12.372;2024-02-21T15:35:42;13.80;83.40
3418;DHT22;68007;51.312;12.372;2024-02-21T15:38:10;13.80;83.00
3418;DHT22;68007;51.312;12.372;2024-02-21T15:40:37;13.80;83.60